createdAt,value
2023-12-10T00:00:19.144Z,5.30
2023-12-10T00:05:38.560Z,4.90
2023-12-10T00:10:46.820Z,5.63
2023-12-10T00:13:14.927Z,5.05
2023-12-10T00:15:54.646Z,5.00
2023-12-10T00:31:37.385Z,4.30
2023-12-10T00:39:36.109Z,4.63
2023-12-10T00:42:05.405Z,3.63
2023-12-10T00:44:35.356Z,2.72
2023-12-10T00:47:09.345Z,2.95
2023-12-10T00:52:34.760Z,2.45
2023-12-10T00:55:06.540Z,2.83
2023-12-10T01:02:57.807Z,4.35
2023-12-10T01:08:07.940Z,2.53
2023-12-10T01:10:37.754Z,3.05
2023-12-10T01:13:07.744Z,3.10
2023-12-10T01:15:36.352Z,2.40
2023-12-10T01:18:07.680Z,3.00
2023-12-10T01:23:26.168Z,3.90
2023-12-10T01:31:21.634Z,2.83
2023-12-10T01:36:41.776Z,3.08
2023-12-10T01:39:12.385Z,2.97
2023-12-10T01:44:27.051Z,2.80
2023-12-10T01:49:43.360Z,3.10
2023-12-10T01:52:21.829Z,3.10
2023-12-10T01:57:39.604Z,3.20
2023-12-10T02:00:21.082Z,1.90
2023-12-10T02:02:53.161Z,2.58
2023-12-10T02:08:09.366Z,3.00
2023-12-10T02:10:44.169Z,2.97
2023-12-10T02:13:21.000Z,2.45
2023-12-10T02:15:53.120Z,3.58
2023-12-10T02:26:44.917Z,2.45
2023-12-10T02:29:23.023Z,2.42
2023-12-10T02:31:56.227Z,2.53
2023-12-10T02:34:26.925Z,2.92
2023-12-10T02:39:37.975Z,2.97
2023-12-10T02:42:16.327Z,3.75
2023-12-10T02:47:28.028Z,3.28
2023-12-10T02:49:57.174Z,3.60
2023-12-10T02:52:25.485Z,2.30
2023-12-10T02:57:58.759Z,2.55
2023-12-10T03:00:32.385Z,2.42
2023-12-10T03:03:04.800Z,3.25
2023-12-10T03:05:34.435Z,3.42
2023-12-10T03:10:47.080Z,2.53
2023-12-10T03:13:22.392Z,2.30
2023-12-10T03:15:56.064Z,3.25
2023-12-10T03:21:16.306Z,2.33
2023-12-10T03:23:46.083Z,3.03
2023-12-10T03:26:18.046Z,2.58
2023-12-10T03:28:46.037Z,2.40
2023-12-10T03:31:25.320Z,2.03
2023-12-10T03:33:54.938Z,1.65
2023-12-10T03:36:25.695Z,2.17
2023-12-10T03:38:53.385Z,2.63
2023-12-10T03:41:24.414Z,1.35
2023-12-10T03:43:52.236Z,3.03
2023-12-10T03:46:22.718Z,2.50
2023-12-10T03:48:53.519Z,2.22
2023-12-10T03:51:21.321Z,2.58
2023-12-10T03:53:54.368Z,2.80
2023-12-10T03:56:25.767Z,2.22
2023-12-10T03:58:56.268Z,1.55
2023-12-10T04:01:28.519Z,1.92
2023-12-10T04:03:57.241Z,1.60
2023-12-10T04:06:25.816Z,1.75
2023-12-10T04:08:55.763Z,1.70
2023-12-10T04:11:26.156Z,2.47
2023-12-10T04:13:54.056Z,2.72
2023-12-10T04:16:29.121Z,1.80
2023-12-10T04:18:58.440Z,1.67
2023-12-10T04:21:27.465Z,2.10
2023-12-10T04:23:58.024Z,2.22
2023-12-10T04:26:27.033Z,1.02
2023-12-10T04:28:54.999Z,2.08
2023-12-10T04:31:23.677Z,1.88
2023-12-10T04:33:55.600Z,2.95
2023-12-10T04:36:28.179Z,1.35
2023-12-10T04:38:56.830Z,1.95
2023-12-10T04:41:24.916Z,2.00
2023-12-10T04:44:03.948Z,1.70
2023-12-10T04:46:40.919Z,1.48
2023-12-10T04:49:14.329Z,2.03
2023-12-10T04:51:44.158Z,1.42
2023-12-10T04:54:12.758Z,2.20
2023-12-10T04:56:43.774Z,1.83
2023-12-10T04:59:17.663Z,1.13
2023-12-10T05:01:49.252Z,1.90
2023-12-10T05:04:19.110Z,1.90
2023-12-10T05:06:49.000Z,1.27
2023-12-10T05:09:16.411Z,1.73
2023-12-10T05:11:49.605Z,2.47
2023-12-10T05:14:20.982Z,1.88
2023-12-10T05:16:51.202Z,2.08
2023-12-10T05:19:22.398Z,2.15
2023-12-10T05:21:50.496Z,1.73
2023-12-10T05:24:21.533Z,1.85
2023-12-10T05:27:00.441Z,2.53
2023-12-10T05:29:35.490Z,1.92
2023-12-10T05:32:09.954Z,1.17
2023-12-10T05:34:37.681Z,1.92
2023-12-10T05:37:10.706Z,1.52
2023-12-10T05:39:41.797Z,1.30
2023-12-10T05:42:11.873Z,1.45
2023-12-10T05:44:50.569Z,1.50
2023-12-10T05:47:23.408Z,2.13
2023-12-10T05:49:51.227Z,2.17
2023-12-10T05:52:30.807Z,1.67
2023-12-10T05:55:14.745Z,1.85
2023-12-10T05:57:42.560Z,1.13
2023-12-10T06:00:12.078Z,2.00
2023-12-10T06:02:40.743Z,1.23
2023-12-10T06:05:12.764Z,1.50
2023-12-10T06:07:43.073Z,1.40
2023-12-10T06:10:12.791Z,1.55
2023-12-10T06:12:43.350Z,1.70
2023-12-10T06:15:11.739Z,1.48
2023-12-10T06:17:43.883Z,2.38
2023-12-10T06:20:14.036Z,1.10
2023-12-10T06:22:51.431Z,1.90
2023-12-10T06:25:24.502Z,1.50
2023-12-10T06:27:53.491Z,1.77
2023-12-10T06:36:08.213Z,2.13
2023-12-10T06:41:18.575Z,1.25
2023-12-10T06:43:48.495Z,1.92
2023-12-10T06:46:19.831Z,1.90
2023-12-10T06:48:49.046Z,1.40
2023-12-10T06:51:17.082Z,1.50
2023-12-10T06:53:50.415Z,2.25
2023-12-10T06:56:20.554Z,1.67
2023-12-10T06:58:55.442Z,1.38
2023-12-10T07:01:27.402Z,1.35
2023-12-10T07:03:56.760Z,1.23
2023-12-10T07:06:25.160Z,1.40
2023-12-10T07:08:54.765Z,1.67
2023-12-10T07:11:23.278Z,1.48
2023-12-10T07:13:51.462Z,1.48
2023-12-10T07:16:22.605Z,1.35
2023-12-10T07:18:51.705Z,1.63
2023-12-10T07:21:26.500Z,1.42
2023-12-10T07:23:53.992Z,2.35
2023-12-10T07:26:28.703Z,3.15
2023-12-10T07:28:56.432Z,1.55
2023-12-10T07:31:25.854Z,1.58
2023-12-10T07:33:56.958Z,1.42
2023-12-10T07:36:25.000Z,2.20
2023-12-10T07:38:55.448Z,0.98
2023-12-10T07:41:23.826Z,1.38
2023-12-10T07:43:54.775Z,1.30
2023-12-10T07:46:34.573Z,1.30
2023-12-10T07:49:04.032Z,1.15
2023-12-10T07:51:35.758Z,2.65
2023-12-10T07:54:07.732Z,1.45
2023-12-10T07:56:36.897Z,1.60
2023-12-10T07:59:06.289Z,1.00
2023-12-10T08:01:34.364Z,0.90
2023-12-10T08:04:06.110Z,0.75
2023-12-10T08:06:34.677Z,1.73
2023-12-10T08:09:11.882Z,0.73
2023-12-10T08:11:41.755Z,1.67
2023-12-10T08:14:11.266Z,1.40
2023-12-10T08:16:39.166Z,0.40
2023-12-10T08:19:16.865Z,1.08
2023-12-10T08:21:45.370Z,0.95
2023-12-10T08:24:15.801Z,1.10
2023-12-10T08:26:45.631Z,0.85
2023-12-10T08:29:15.904Z,0.52
2023-12-10T08:31:46.885Z,1.08
2023-12-10T08:45:37.405Z,0.65
2023-12-10T08:53:28.739Z,0.80
2023-12-10T09:01:23.958Z,1.00
2023-12-10T09:03:52.597Z,1.15
2023-12-10T09:19:56.493Z,0.60
2023-12-10T09:22:51.677Z,0.98
2023-12-10T09:39:06.009Z,0.50
2023-12-10T10:13:13.060Z,1.10
2023-12-10T10:40:44.174Z,1.40
2023-12-10T10:48:59.584Z,0.70
2023-12-10T11:02:31.822Z,0.50
2023-12-10T11:43:47.163Z,0.60
2023-12-10T12:11:06.339Z,0.43
2023-12-10T12:16:29.897Z,1.10
2023-12-10T12:21:43.404Z,0.70
2023-12-10T12:24:13.966Z,0.95
2023-12-10T12:40:29.519Z,1.15
2023-12-10T12:51:15.547Z,2.05
2023-12-10T12:54:12.162Z,1.10
2023-12-10T12:56:51.502Z,1.27
2023-12-10T13:07:51.272Z,1.88
2023-12-10T13:26:38.077Z,1.70
2023-12-10T13:29:17.063Z,1.80
2023-12-10T13:37:21.533Z,2.03
2023-12-10T13:47:57.244Z,2.50
2023-12-10T13:55:51.851Z,2.40
2023-12-10T13:58:20.750Z,1.95
2023-12-10T14:03:34.773Z,1.98
2023-12-10T14:06:13.413Z,3.20
2023-12-10T14:14:14.092Z,2.72
2023-12-10T14:24:54.283Z,2.97
2023-12-10T14:41:21.776Z,1.88
2023-12-10T14:46:36.345Z,3.08
2023-12-10T14:51:59.217Z,3.13
2023-12-10T14:57:27.302Z,2.40
2023-12-10T15:53:34.848Z,3.30
2023-12-10T17:11:57.598Z,3.63
2023-12-10T17:47:15.961Z,1.92
2023-12-10T17:58:09.411Z,3.03
2023-12-10T18:12:03.990Z,3.45
2023-12-10T18:49:44.173Z,6.25
2023-12-10T20:09:23.303Z,2.95
2023-12-10T20:34:26.070Z,3.92
2023-12-10T21:01:46.126Z,3.40
2023-12-10T21:29:12.670Z,2.95
2023-12-10T21:51:42.502Z,2.35
2023-12-10T22:02:32.558Z,2.25
2023-12-10T22:07:43.938Z,1.90
2023-12-10T22:29:10.446Z,2.83
2023-12-10T22:34:29.664Z,2.38
2023-12-10T22:36:57.513Z,1.40
2023-12-10T22:50:35.131Z,1.40
2023-12-10T22:53:09.716Z,1.20
2023-12-10T22:58:36.399Z,1.60
2023-12-10T23:01:26.564Z,1.10
2023-12-10T23:04:00.340Z,1.38
2023-12-10T23:06:33.080Z,1.70
2023-12-10T23:09:08.570Z,1.73
2023-12-10T23:14:36.072Z,1.50
2023-12-10T23:17:09.364Z,1.50
2023-12-10T23:25:38.163Z,2.05
2023-12-10T23:42:02.591Z,2.63
2023-12-10T23:52:52.834Z,4.25
2023-12-10T23:55:31.060Z,3.72
